Kezdőlap
METAR-TAF:

METAR-TAF

Repülőterek :

Webster City Municipal Airport

Webster City, Iowa, Amerikai Egyesült Államok

földrajzi szélesség: 42-26N, földrajzi hosszúság: 093-52W, magasság: 342 m

Jelenlegi meteorológiai megfigyelések

A jelentés 6 perccel ezelõtt készült, 12:35 UTC
Északi szél 6 kt
Hőmérséklet -16°C
Páratartalom 84%
Légköri nyomás 1019 hPa
Látótávolság: 16.1 km
Kevés felhő 12000 lábon

METAR: KEBS 151235Z AUTO 36006KT 10SM FEW120 M16/M18 A3008 RMK AO2

Idő: 06:41 (12:41 UTC)


TAF: hiányzik

Meteorológiai megfigyelések és előrejelzések több, mint 4000 repülőtéren (METAR és TAF jelentéseket).

A térképen piros és sárga pontok jelzik az elérhető meteorológiai állomásokat.

Mozgassa az egeret a pont fölött, hogy megjelenjen az állomás neve.

Azután kattintson az időjárási megfigyelések és előrejelzések megtekintéséhez.

A térkép megváltoztatása: kattintson a fekete keresztel jelölt zöld gombra ráközelítéshez, a vonallal jelölt zöld gombra távolításhoz, vagy a zöld nyilakra a szomszédos térképek eléréséhez.


METAR-TAF: